Time;durP1;ratioP1;P1;durP2;ratioP2;P2;SDS_P1;SDS_P2;PMS_P1;PMS_P2;Temp;Humidity;BMP_temperature;BMP_pressure;BME280_temperature;BME280_humidity;BME280_pressure;Samples;Min_cycle;Max_cycle;Signal;HPM_P1;HPM_P2
2022/06/30 00:02:05;;;;;;;5.37;4.47;;;;;;;23.94;81.68;99231.88;5052015;28;20212;-65
2022/06/30 00:04:32;;;;;;;4.63;4.33;;;;;;;23.95;81.68;99254.50;5052568;28;20192;-65
2022/06/30 00:06:59;;;;;;;4.90;4.60;;;;;;;23.90;81.50;99243.63;5052752;28;20216;-65
2022/06/30 00:09:27;;;;;;;4.40;4.10;;;;;;;23.78;82.10;99247.28;5043686;28;20263;-65
2022/06/30 00:11:54;;;;;;;4.73;4.47;;;;;;;23.67;82.16;99233.47;5042834;28;20198;-65
2022/06/30 00:14:21;;;;;;;4.47;4.27;;;;;;;23.65;82.00;99240.66;5052928;28;20247;-65
2022/06/30 00:16:48;;;;;;;4.37;4.17;;;;;;;23.66;81.48;99227.41;5052253;28;20197;-65
2022/06/30 00:19:15;;;;;;;4.80;4.60;;;;;;;23.67;82.49;99239.53;5051843;28;20212;-65
2022/06/30 00:21:42;;;;;;;3.93;3.63;;;;;;;23.64;82.21;99244.22;5045657;28;20692;-65
2022/06/30 00:24:09;;;;;;;4.17;3.97;;;;;;;23.56;82.27;99247.47;5052329;28;20197;-65
2022/06/30 00:26:37;;;;;;;4.17;3.90;;;;;;;23.52;82.44;99243.50;5049713;28;20216;-65
2022/06/30 00:29:04;;;;;;;4.50;4.30;;;;;;;23.53;82.42;99245.13;5049692;28;20197;-65
2022/06/30 00:31:31;;;;;;;4.10;3.80;;;;;;;23.54;81.82;99238.94;5042308;28;20216;-65
2022/06/30 00:33:58;;;;;;;4.03;3.83;;;;;;;23.56;81.77;99239.63;5042799;28;20573;-65
2022/06/30 00:36:25;;;;;;;4.17;3.97;;;;;;;23.55;81.37;99243.22;5052204;28;20592;-65
2022/06/30 00:38:51;;;;;;;4.40;4.07;;;;;;;23.57;81.74;99248.31;5043604;28;20192;-65
2022/06/30 00:41:18;;;;;;;4.07;3.87;;;;;;;23.54;82.02;99249.41;5051395;28;20573;-66
2022/06/30 00:43:47;;;;;;;4.57;4.37;;;;;;;23.53;82.10;99250.34;5051618;28;20199;-66
2022/06/30 00:46:15;;;;;;;4.23;4.03;;;;;;;23.53;82.13;99242.50;5049178;28;20204;-66
2022/06/30 00:48:43;;;;;;;4.57;4.37;;;;;;;23.48;82.56;99248.16;5051037;28;20213;-65
2022/06/30 00:51:10;;;;;;;4.50;4.30;;;;;;;23.40;82.90;99234.88;5046737;28;20212;-65
2022/06/30 00:53:39;;;;;;;4.10;3.70;;;;;;;23.41;83.08;99238.34;5051781;28;20201;-65
2022/06/30 00:56:09;;;;;;;4.63;4.43;;;;;;;23.31;83.42;99211.25;5045894;28;20201;-65
2022/06/30 00:58:39;;;;;;;4.97;4.50;;;;;;;23.39;83.34;99229.75;5051162;28;20672;-65
2022/06/30 01:01:09;;;;;;;5.00;4.70;;;;;;;23.36;83.28;99224.78;5041369;28;20669;-65
2022/06/30 01:03:36;;;;;;;3.87;3.67;;;;;;;23.39;83.13;99229.75;5040251;28;20194;-65
2022/06/30 01:06:05;;;;;;;4.90;4.70;;;;;;;23.37;83.06;99231.66;5039752;28;20212;-65
2022/06/30 01:08:33;;;;;;;4.30;4.10;;;;;;;23.36;83.56;99228.22;5043326;28;20219;-65
2022/06/30 01:13:46;;;;;;;4.23;4.03;;;;;;;23.33;83.94;99225.03;5051343;28;20199;-65
2022/06/30 01:16:14;;;;;;;5.07;4.77;;;;;;;23.30;84.20;99228.75;5044312;28;20670;-65
2022/06/30 01:18:41;;;;;;;5.00;4.70;;;;;;;23.25;84.69;99223.09;5039753;28;20193;-65
2022/06/30 01:21:08;;;;;;;4.20;4.00;;;;;;;23.26;85.03;99229.97;5050155;28;20596;-65
2022/06/30 01:23:36;;;;;;;4.17;3.97;;;;;;;23.24;85.39;99231.03;5051283;28;20200;-65
2022/06/30 01:26:03;;;;;;;4.77;4.47;;;;;;;23.24;85.06;99231.03;5050429;28;20203;-65
2022/06/30 01:28:30;;;;;;;4.60;4.40;;;;;;;23.20;85.11;99224.44;5051136;28;20219;-65
2022/06/30 01:30:58;;;;;;;4.37;4.10;;;;;;;23.15;85.58;99221.38;5036746;28;20196;-65
2022/06/30 01:33:24;;;;;;;5.23;4.80;;;;;;;23.08;85.78;99228.06;5050159;28;20196;-65
2022/06/30 01:35:51;;;;;;;4.50;4.17;;;;;;;23.02;85.88;99222.41;5044043;28;20205;-65
2022/06/30 01:38:19;;;;;;;4.70;4.30;;;;;;;22.99;85.78;99230.50;5041130;28;20204;-65
2022/06/30 01:40:48;;;;;;;3.83;3.63;;;;;;;22.96;85.30;99228.16;5041361;28;20604;-65
2022/06/30 01:43:15;;;;;;;3.97;3.67;;;;;;;22.96;85.04;99222.94;5051475;28;20216;-65
2022/06/30 01:45:43;;;;;;;4.03;3.73;;;;;;;22.95;84.67;99215.19;5051160;28;20603;-65
2022/06/30 01:48:10;;;;;;;5.50;3.80;;;;;;;22.94;84.59;99219.59;5049737;28;20220;-66
2022/06/30 01:50:38;;;;;;;3.97;3.77;;;;;;;22.94;84.04;99219.59;5045554;28;20193;-65
2022/06/30 01:53:05;;;;;;;4.43;4.23;;;;;;;22.94;83.89;99219.59;5049873;28;20208;-66
2022/06/30 01:55:32;;;;;;;4.50;4.27;;;;;;;22.83;83.75;99206.63;5036166;28;20235;-66
2022/06/30 01:58:00;;;;;;;4.10;3.90;;;;;;;22.93;83.96;99219.75;5049034;28;20208;-65
2022/06/30 02:00:28;;;;;;;6.63;4.40;;;;;;;22.92;84.09;99226.75;5049772;28;20554;-65
2022/06/30 02:02:56;;;;;;;3.77;3.57;;;;;;;22.90;83.79;99227.84;5042334;28;20196;-65
2022/06/30 02:05:24;;;;;;;4.33;4.13;;;;;;;22.87;83.83;99228.94;5050990;28;20204;-65
2022/06/30 02:07:53;;;;;;;4.50;4.30;;;;;;;22.85;84.04;99222.16;5050791;28;20278;-65
2022/06/30 02:10:21;;;;;;;5.80;4.63;;;;;;;22.77;84.54;99212.34;5037836;28;20566;-65
2022/06/30 02:12:51;;;;;;;4.03;3.63;;;;;;;22.82;84.27;99222.41;5040262;28;20193;-65
2022/06/30 02:15:22;;;;;;;4.30;4.10;;;;;;;22.79;84.71;99218.28;5045845;28;20200;-65
2022/06/30 02:17:51;;;;;;;3.83;3.60;;;;;;;22.78;84.60;99221.84;5050632;28;20201;-65
2022/06/30 02:20:21;;;;;;;3.97;3.77;;;;;;;22.72;85.27;99219.72;5050523;28;20201;-65
2022/06/30 02:22:50;;;;;;;4.33;4.13;;;;;;;22.69;85.09;99219.97;5043221;28;20198;-65
2022/06/30 02:25:17;;;;;;;4.47;4.17;;;;;;;22.66;85.08;99216.78;5046679;28;20676;-65
2022/06/30 02:27:44;;;;;;;4.30;4.00;;;;;;;22.43;85.46;99179.47;5039525;28;20278;-65
2022/06/30 02:30:11;;;;;;;4.37;4.10;;;;;;;22.62;85.29;99224.03;5038180;28;20215;-65
2022/06/30 02:32:39;;;;;;;4.57;4.20;;;;;;;22.56;85.09;99219.31;5050561;28;20254;-65
2022/06/30 02:35:07;;;;;;;4.13;3.90;;;;;;;22.49;85.18;99218.16;5049580;28;20208;-65
2022/06/30 02:37:34;;;;;;;4.40;4.10;;;;;;;22.42;85.69;99223.03;5050925;28;20197;-65
2022/06/30 02:40:01;;;;;;;4.93;4.53;;;;;;;22.33;85.43;99208.13;5038189;28;20227;-65
2022/06/30 02:42:28;;;;;;;3.43;3.33;;;;;;;22.37;85.80;99212.16;5053062;28;20197;-65
2022/06/30 02:44:55;;;;;;;4.17;3.97;;;;;;;22.35;85.98;99215.84;5050530;28;20705;-65
2022/06/30 02:47:22;;;;;;;4.37;4.00;;;;;;;22.20;85.98;99201.41;5054087;28;20600;-65
2022/06/30 02:49:50;;;;;;;5.20;4.37;;;;;;;22.26;86.39;99232.28;5053785;28;20204;-65
2022/06/30 02:52:17;;;;;;;4.67;4.27;;;;;;;22.24;86.95;99228.94;5053981;28;20710;-65
2022/06/30 02:54:44;;;;;;;4.73;4.33;;;;;;;22.21;87.08;99231.78;5052979;28;20558;-65
2022/06/30 02:57:11;;;;;;;4.83;4.63;;;;;;;22.19;87.26;99231.09;5053746;28;20208;-65
2022/06/30 02:59:38;;;;;;;5.03;4.80;;;;;;;22.17;86.68;99232.97;5054797;28;20208;-65
2022/06/30 03:02:05;;;;;;;5.00;4.47;;;;;;;22.10;87.44;99237.88;5053573;28;20261;-66
2022/06/30 03:04:32;;;;;;;4.50;4.20;;;;;;;22.09;87.57;99240.63;5053483;28;20207;-65
2022/06/30 03:07:00;;;;;;;4.90;4.60;;;;;;;22.04;88.34;99246.19;5044197;28;20200;-65
2022/06/30 03:09:27;;;;;;;4.50;4.30;;;;;;;21.95;88.72;99249.53;5053473;28;20220;-65
2022/06/30 03:11:54;;;;;;;5.03;4.70;;;;;;;21.87;89.04;99242.25;5053639;28;20234;-65
2022/06/30 03:14:21;;;;;;;4.30;4.10;;;;;;;21.57;90.60;99223.81;5043346;28;20687;-65
2022/06/30 03:16:48;;;;;;;4.80;4.40;;;;;;;21.73;90.47;99250.38;5052114;28;20192;-65
2022/06/30 03:19:15;;;;;;;3.80;3.53;;;;;;;21.77;90.84;99250.97;5039986;28;20200;-65
2022/06/30 03:21:42;;;;;;;4.43;4.23;;;;;;;21.64;90.92;99230.22;5052159;28;20290;-65
2022/06/30 03:24:12;;;;;;;5.07;4.83;;;;;;;21.79;91.07;99249.88;5052281;28;20574;-66
2022/06/30 03:26:39;;;;;;;4.77;4.43;;;;;;;21.81;91.16;99247.16;5041397;28;20672;-66
2022/06/30 03:29:06;;;;;;;6.70;4.77;;;;;;;21.83;92.06;99256.53;5052291;28;20215;-65
2022/06/30 03:31:33;;;;;;;5.83;5.33;;;;;;;21.81;91.42;99242.75;5053319;28;20222;-65
2022/06/30 03:34:01;;;;;;;5.00;4.73;;;;;;;21.88;91.54;99251.78;5053293;28;20203;-65
2022/06/30 03:36:27;;;;;;;5.10;4.50;;;;;;;21.91;91.89;99254.16;5050687;28;20208;-65
2022/06/30 03:38:54;;;;;;;5.30;4.90;;;;;;;21.98;91.98;99260.56;5042069;28;20196;-65
2022/06/30 03:41:22;;;;;;;4.70;4.50;;;;;;;22.04;91.86;99258.41;5053518;28;20223;-65
2022/06/30 03:43:49;;;;;;;5.10;4.67;;;;;;;22.12;91.81;99256.03;5053421;28;20196;-65
2022/06/30 03:46:16;;;;;;;4.73;4.43;;;;;;;22.20;92.29;99254.47;5047661;28;20228;-65
2022/06/30 03:48:44;;;;;;;5.03;4.77;;;;;;;22.35;92.23;99255.03;5052551;28;20215;-65
2022/06/30 03:51:11;;;;;;;5.33;5.00;;;;;;;22.49;92.11;99259.94;5052489;28;20211;-66
2022/06/30 03:53:39;;;;;;;4.70;4.50;;;;;;;22.63;91.79;99264.88;5052069;28;20215;-66
2022/06/30 03:56:06;;;;;;;5.40;4.93;;;;;;;22.76;90.84;99273.41;5044035;28;20247;-66
2022/06/30 03:58:34;;;;;;;4.70;4.50;;;;;;;22.91;90.50;99271.31;5051308;28;20223;-66
2022/06/30 04:01:01;;;;;;;4.63;4.33;;;;;;;23.05;90.31;99268.38;5050040;28;20672;-65
2022/06/30 04:03:28;;;;;;;4.20;4.00;;;;;;;23.14;90.18;99261.53;5052256;28;20214;-65
2022/06/30 04:05:55;;;;;;;4.70;4.50;;;;;;;23.37;89.29;99263.88;5052654;28;20211;-65
2022/06/30 04:08:21;;;;;;;5.30;4.90;;;;;;;23.53;89.04;99273.91;5052427;28;20224;-65
2022/06/30 04:10:48;;;;;;;5.13;4.83;;;;;;;23.71;88.22;99276.75;5049299;28;20197;-65
2022/06/30 04:13:15;;;;;;;5.57;5.27;;;;;;;23.90;88.16;99277.66;5052462;28;20568;-65
2022/06/30 04:15:43;;;;;;;5.03;4.63;;;;;;;24.05;86.36;99281.53;5043211;28;20209;-65
2022/06/30 04:18:10;;;;;;;4.73;4.47;;;;;;;24.22;85.41;99276.66;5038145;28;20205;-65
2022/06/30 04:20:37;;;;;;;4.17;3.97;;;;;;;24.41;83.90;99279.28;5052499;28;20197;-65
2022/06/30 04:23:04;;;;;;;5.23;4.57;;;;;;;24.58;82.47;99281.25;5039928;28;20193;-65
2022/06/30 04:25:31;;;;;;;4.27;4.07;;;;;;;24.76;81.03;99282.19;5050568;28;20258;-65
2022/06/30 04:27:59;;;;;;;6.43;4.60;;;;;;;24.89;79.92;99285.41;5048009;28;20221;-65
2022/06/30 04:33:11;;;;;;;4.30;4.00;;;;;;;25.26;78.10;99296.00;5052350;28;20208;-66
2022/06/30 04:35:38;;;;;;;4.83;4.43;;;;;;;25.37;75.94;99287.94;5050545;28;20197;-66
2022/06/30 04:38:05;;;;;;;6.50;5.40;;;;;;;25.37;77.18;99287.09;5046227;28;20201;-66
2022/06/30 04:43:16;;;;;;;6.50;6.03;;;;;;;25.54;78.76;99294.28;5044262;28;20269;-65
2022/06/30 04:45:43;;;;;;;6.30;5.90;;;;;;;25.67;77.97;99294.78;5050912;28;20200;-65
2022/06/30 04:48:12;;;;;;;8.73;5.43;;;;;;;25.85;77.67;99292.22;5043783;28;20217;-65
2022/06/30 04:50:39;;;;;;;6.10;5.80;;;;;;;26.02;76.55;99294.06;5051695;28;20201;-65
2022/06/30 04:53:06;;;;;;;5.20;4.70;;;;;;;26.16;75.11;99300.63;5043726;28;20192;-65
2022/06/30 04:55:33;;;;;;;5.40;5.00;;;;;;;26.36;74.64;99296.94;5051641;28;20668;-65
2022/06/30 04:57:59;;;;;;;4.50;4.30;;;;;;;26.54;73.37;99295.97;5033942;28;20197;-65
2022/06/30 05:00:26;;;;;;;4.50;4.20;;;;;;;26.63;71.38;99302.13;5046431;28;20193;-65
2022/06/30 05:02:53;;;;;;;7.33;4.27;;;;;;;26.82;72.22;99304.63;5040830;28;20197;-65
2022/06/30 05:05:22;;;;;;;4.10;3.80;;;;;;;26.98;70.82;99304.75;5047160;28;20200;-66
2022/06/30 05:07:48;;;;;;;3.90;3.60;;;;;;;27.20;70.84;99307.91;5044005;28;20589;-66
2022/06/30 05:10:15;;;;;;;4.17;3.43;;;;;;;27.44;67.58;99308.06;5042899;28;20200;-66
2022/06/30 05:12:42;;;;;;;3.47;3.17;;;;;;;27.65;66.58;99311.19;5039471;28;20197;-66
2022/06/30 05:15:10;;;;;;;3.10;3.00;;;;;;;27.89;66.68;99313.09;5051767;28;20235;-66
2022/06/30 05:17:37;;;;;;;3.67;3.47;;;;;;;28.09;63.52;99307.44;5049304;28;20584;-65
2022/06/30 05:20:05;;;;;;;3.40;3.20;;;;;;;28.27;64.63;99309.16;5051484;28;20199;-65
2022/06/30 05:22:33;;;;;;;3.80;3.60;;;;;;;28.44;63.83;99313.47;5051785;28;20197;-66
2022/06/30 05:27:46;;;;;;;3.97;3.57;;;;;;;28.84;62.79;99323.28;5050193;28;20576;-65
2022/06/30 05:30:13;;;;;;;4.57;4.37;;;;;;;29.05;61.63;99316.50;5050686;28;20586;-65
2022/06/30 05:32:40;;;;;;;5.00;4.67;;;;;;;29.22;62.15;99319.97;5048725;28;20636;-65
2022/06/30 05:35:08;;;;;;;6.53;4.63;;;;;;;29.40;59.37;99322.47;5050929;28;20565;-65
2022/06/30 05:37:36;;;;;;;4.07;3.87;;;;;;;29.55;58.46;99324.25;5048304;28;20197;-65
2022/06/30 05:40:04;;;;;;;3.63;3.43;;;;;;;29.71;57.74;99323.38;5050612;28;20225;-65
2022/06/30 05:42:31;;;;;;;3.90;3.60;;;;;;;29.96;56.80;99327.59;5051130;28;20696;-65
2022/06/30 05:44:57;;;;;;;3.60;3.47;;;;;;;30.18;55.45;99321.56;5049686;28;20228;-65
2022/06/30 05:47:24;;;;;;;3.75;3.55;;;;;;;30.42;55.76;99325.94;5049482;28;20207;-65
2022/06/30 05:49:51;;;;;;;4.05;3.83;;;;;;;30.53;54.02;99327.34;5050828;28;20220;-66
2022/06/30 05:52:18;;;;;;;4.80;4.32;;;;;;;30.42;51.58;99333.88;5050430;28;20577;-65
2022/06/30 05:54:46;;;;;;;4.13;3.92;;;;;;;30.47;52.84;99330.72;5050717;28;20207;-65
2022/06/30 05:57:13;;;;;;;4.00;3.80;;;;;;;30.59;54.77;99330.13;5050539;28;20197;-65
2022/06/30 05:59:40;;;;;;;3.65;3.45;;;;;;;30.64;52.43;99325.13;5050848;28;20197;-65
2022/06/30 06:02:07;;;;;;;3.90;3.70;;;;;;;30.54;50.62;99334.28;5050767;28;20244;-65
2022/06/30 06:04:34;;;;;;;4.50;4.18;;;;;;;30.86;51.35;99346.50;5050790;28;20664;-64
2022/06/30 06:07:02;;;;;;;4.30;3.25;;;;;;;31.14;51.90;99335.19;5049183;28;20665;-65
2022/06/30 06:09:29;;;;;;;3.70;3.50;;;;;;;31.36;47.79;99340.63;5049860;28;20311;-65
2022/06/30 06:11:57;;;;;;;3.88;3.67;;;;;;;31.59;47.73;99341.41;5044876;28;20197;-65
2022/06/30 06:14:24;;;;;;;3.10;2.97;;;;;;;31.69;46.81;99341.97;5048059;28;20209;-65
2022/06/30 06:16:51;;;;;;;3.33;3.13;;;;;;;31.77;46.82;99339.22;5049822;28;20216;-65
2022/06/30 06:19:18;;;;;;;3.33;3.13;;;;;;;32.01;48.76;99333.63;5053281;28;20196;-65
2022/06/30 06:21:45;;;;;;;4.07;3.33;;;;;;;32.20;47.66;99343.69;5051358;28;20684;-65
2022/06/30 06:24:11;;;;;;;3.58;3.33;;;;;;;32.46;45.95;99342.34;5052594;28;20212;-66
2022/06/30 06:26:38;;;;;;;3.58;3.35;;;;;;;32.64;46.45;99345.44;5053627;28;20215;-66
2022/06/30 06:29:07;;;;;;;3.35;3.25;;;;;;;32.63;44.41;99339.31;5053805;28;20270;-67
2022/06/30 06:31:34;;;;;;;5.43;3.72;;;;;;;32.67;46.77;99340.56;5053701;28;20211;-67
2022/06/30 06:34:02;;;;;;;4.00;3.63;;;;;;;32.78;47.61;99344.56;5053658;28;20205;-66
2022/06/30 06:36:29;;;;;;;3.03;2.92;;;;;;;32.71;45.71;99341.00;5053923;28;20215;-66
2022/06/30 06:38:57;;;;;;;3.25;3.15;;;;;;;32.87;46.65;99348.72;5049918;28;20201;-66
2022/06/30 06:41:24;;;;;;;3.33;3.22;;;;;;;33.04;46.19;99352.78;5050505;28;20680;-66
2022/06/30 06:43:52;;;;;;;3.63;3.53;;;;;;;33.27;45.56;99352.59;5052500;28;20232;-66
2022/06/30 06:46:22;;;;;;;3.85;3.47;;;;;;;33.49;45.41;99345.38;5051875;28;20204;-66
2022/06/30 06:48:49;;;;;;;3.63;3.42;;;;;;;33.82;46.24;99340.31;5053648;28;20216;-67
2022/06/30 06:51:16;;;;;;;3.47;3.28;;;;;;;33.95;41.92;99345.69;5053722;28;20205;-67
2022/06/30 06:53:43;;;;;;;3.58;3.28;;;;;;;33.83;40.47;99337.44;5051809;28;20538;-67
2022/06/30 06:56:10;;;;;;;2.88;2.78;;;;;;;34.01;42.62;99335.09;5053238;28;20212;-68
2022/06/30 06:58:37;;;;;;;3.15;3.03;;;;;;;34.19;39.73;99340.69;5052298;28;20204;-68
2022/06/30 07:01:05;;;;;;;3.35;3.15;;;;;;;34.08;40.96;99340.44;5051277;28;20435;-66
2022/06/30 07:03:33;;;;;;;3.13;2.92;;;;;;;34.18;41.67;99336.41;5051448;28;20762;-67
2022/06/30 07:06:00;;;;;;;3.97;2.67;;;;;;;34.38;41.46;99339.13;5052075;28;20203;-66
2022/06/30 07:08:27;;;;;;;3.25;3.15;;;;;;;34.39;40.97;99339.94;5050290;28;20660;-66
2022/06/30 07:10:56;;;;;;;3.00;2.90;;;;;;;34.49;39.32;99340.38;5046374;28;20200;-66
2022/06/30 07:13:23;;;;;;;2.80;2.70;;;;;;;34.63;38.70;99347.44;5052422;28;20270;-66
2022/06/30 07:15:50;;;;;;;2.75;2.65;;;;;;;34.71;41.30;99336.56;5049255;28;20205;-67
2022/06/30 07:18:17;;;;;;;3.45;3.15;;;;;;;34.89;39.82;99344.81;5051104;28;20208;-67
2022/06/30 07:20:46;;;;;;;2.85;2.75;;;;;;;35.04;37.95;99348.09;5052368;28;20581;-66
2022/06/30 07:23:13;;;;;;;4.30;4.00;;;;;;;35.25;39.11;99333.78;5050539;28;20439;-68
2022/06/30 07:25:40;;;;;;;3.90;3.67;;;;;;;35.25;39.76;99334.56;5049713;28;20209;-69
2022/06/30 07:28:07;;;;;;;2.55;2.45;;;;;;;35.34;37.55;99327.22;5050450;28;20262;-69
2022/06/30 07:30:34;;;;;;;3.67;3.45;;;;;;;35.44;37.69;99326.78;5052659;28;20213;-69
2022/06/30 07:33:01;;;;;;;3.17;2.78;;;;;;;35.56;36.90;99330.44;5052405;28;20229;-69
2022/06/30 07:35:28;;;;;;;3.08;2.88;;;;;;;35.81;36.48;99336.75;5051992;28;20212;-69
2022/06/30 07:37:56;;;;;;;3.63;3.20;;;;;;;35.96;36.73;99333.88;5051076;28;20572;-69
2022/06/30 07:40:23;;;;;;;3.05;2.95;;;;;;;36.07;39.02;99327.88;5051495;28;20228;-69
2022/06/30 07:42:52;;;;;;;3.58;3.40;;;;;;;36.32;39.72;99323.44;5051706;28;20205;-69
2022/06/30 07:45:21;;;;;;;3.20;3.10;;;;;;;36.46;40.21;99321.53;5051993;28;20584;-68
2022/06/30 07:47:51;;;;;;;2.92;2.83;;;;;;;36.36;36.62;99331.84;5046167;28;20207;-67
2022/06/30 07:50:18;;;;;;;3.13;2.92;;;;;;;36.11;36.53;99323.75;5041449;28;20286;-68
2022/06/30 07:52:46;;;;;;;2.95;2.85;;;;;;;35.77;36.91;99322.19;5045241;28;20568;-69
2022/06/30 07:55:14;;;;;;;3.10;3.00;;;;;;;35.65;38.47;99305.22;5043226;28;20232;-70
2022/06/30 07:57:43;;;;;;;3.38;3.28;;;;;;;35.39;40.02;99299.91;5047791;28;20560;-69
2022/06/30 08:00:11;;;;;;;3.40;3.20;;;;;;;35.40;38.38;99320.22;5045888;28;20203;-70
2022/06/30 08:02:38;;;;;;;5.00;3.55;;;;;;;35.50;38.91;99320.59;5043395;28;20323;-69
2022/06/30 08:05:06;;;;;;;3.55;3.35;;;;;;;35.78;38.44;99318.50;5044054;28;20243;-69
2022/06/30 08:07:33;;;;;;;3.50;3.40;;;;;;;36.09;39.80;99323.97;5044093;28;20224;-68
2022/06/30 08:10:00;;;;;;;2.92;2.83;;;;;;;36.04;39.75;99318.41;5042981;28;20215;-69
2022/06/30 08:12:28;;;;;;;3.10;3.00;;;;;;;36.30;37.26;99323.66;5040877;28;20204;-69
2022/06/30 08:14:55;;;;;;;4.00;3.35;;;;;;;36.59;39.15;99324.16;5048802;28;20581;-70
2022/06/30 08:17:22;;;;;;;3.58;3.30;;;;;;;36.69;38.26;99327.16;5047388;28;20197;-69
2022/06/30 08:19:49;;;;;;;3.00;2.90;;;;;;;36.86;38.32;99328.28;5047240;28;20189;-70
2022/06/30 08:22:16;;;;;;;3.78;3.53;;;;;;;37.09;39.17;99328.53;5049027;28;21190;-70
2022/06/30 08:24:42;;;;;;;3.78;3.30;;;;;;;37.23;37.24;99330.03;5045126;28;20197;-69
2022/06/30 08:27:09;;;;;;;3.90;3.60;;;;;;;37.27;38.65;99331.25;5044401;28;20201;-70
2022/06/30 08:29:37;;;;;;;3.53;3.42;;;;;;;37.32;37.86;99328.72;5040551;28;20236;-71
2022/06/30 08:32:05;;;;;;;3.42;3.13;;;;;;;37.47;38.32;99330.28;5045851;28;20645;-66
2022/06/30 08:34:32;;;;;;;3.75;3.55;;;;;;;37.63;38.05;99321.66;5050934;28;20243;-68
2022/06/30 08:36:59;;;;;;;3.38;3.17;;;;;;;37.77;37.27;99328.50;5048966;28;20205;-70
2022/06/30 08:42:13;;;;;;;3.78;3.53;;;;;;;38.09;35.60;99324.66;5050500;28;20203;-71
2022/06/30 08:44:43;;;;;;;2.90;2.80;;;;;;;37.90;33.93;99331.03;5047260;28;20212;-70
2022/06/30 08:47:12;;;;;;;4.47;2.90;;;;;;;37.56;33.98;99335.13;5045626;28;20216;-70
2022/06/30 08:49:39;;;;;;;2.50;2.40;;;;;;;37.29;34.22;99323.81;5044748;28;20221;-71
2022/06/30 08:52:08;;;;;;;2.75;2.65;;;;;;;37.36;34.42;99323.75;5043648;28;20202;-70
2022/06/30 08:54:38;;;;;;;2.92;2.80;;;;;;;37.43;34.67;99323.69;5042400;28;20288;-71
2022/06/30 08:57:07;;;;;;;2.88;2.78;;;;;;;37.10;33.03;99326.66;5040429;28;20818;-71
2022/06/30 08:59:36;;;;;;;3.35;3.15;;;;;;;36.74;35.94;99319.31;5039873;28;20197;-72
2022/06/30 09:02:06;;;;;;;4.15;2.88;;;;;;;36.77;34.40;99318.91;5042622;28;20207;-71
2022/06/30 09:04:33;;;;;;;2.80;2.70;;;;;;;36.40;35.06;99312.53;5047031;28;20703;-71
2022/06/30 09:06:59;;;;;;;3.35;3.25;;;;;;;36.24;36.46;99315.69;5049822;28;20565;-70
2022/06/30 09:09:26;;;;;;;3.42;3.33;;;;;;;36.57;38.84;99310.19;5050059;28;20684;-70
2022/06/30 09:11:54;;;;;;;3.38;3.17;;;;;;;36.79;38.26;99322.16;5048999;28;20227;-70
2022/06/30 09:14:35;;;;;;;2.90;2.80;;;;;;;36.95;38.23;99310.13;5048649;28;20201;-70
2022/06/30 09:17:04;;;;;;;3.78;3.47;;;;;;;36.86;35.82;99317.59;5050890;28;20212;-71
2022/06/30 09:19:32;;;;;;;3.33;3.10;;;;;;;37.03;36.18;99318.69;5050883;28;20197;-71
2022/06/30 09:22:07;;;;;;;3.38;3.25;;;;;;;37.25;35.72;99316.47;5047520;28;20204;-71
2022/06/30 09:24:34;;;;;;;3.58;3.25;;;;;;;37.17;32.75;99319.41;5049085;28;20216;-70
2022/06/30 09:27:19;;;;;;;3.13;3.03;;;;;;;37.23;34.63;99314.00;5044948;28;20211;-71
2022/06/30 09:29:51;;;;;;;3.55;2.97;;;;;;;37.09;33.83;99317.84;5048980;28;20229;-68
2022/06/30 09:32:20;;;;;;;3.53;3.20;;;;;;;36.26;34.68;99302.94;5047406;28;20207;-70
2022/06/30 09:34:50;;;;;;;3.33;3.08;;;;;;;36.13;34.92;99311.84;5048433;28;20680;-68
2022/06/30 09:37:20;;;;;;;3.40;3.15;;;;;;;36.05;37.28;99288.03;5048507;28;20204;-68
2022/06/30 09:39:48;;;;;;;3.67;3.47;;;;;;;35.88;35.88;99307.41;5048572;28;20251;-70
2022/06/30 09:42:16;;;;;;;3.35;3.25;;;;;;;35.97;37.83;99298.13;5045026;28;20208;-70
2022/06/30 09:44:49;;;;;;;3.20;3.10;;;;;;;36.11;37.26;99313.91;5047019;28;20207;-69
2022/06/30 09:47:17;;;;;;;3.30;3.10;;;;;;;36.17;35.54;99302.38;5044654;28;20277;-69
2022/06/30 09:49:47;;;;;;;3.75;3.55;;;;;;;36.19;36.15;99304.84;5045874;28;20216;-68
2022/06/30 09:52:19;;;;;;;3.35;2.95;;;;;;;35.98;36.81;99308.59;5048534;28;20266;-70
2022/06/30 09:54:53;;;;;;;3.50;3.20;;;;;;;35.92;38.52;99305.94;5047588;28;20196;-70
2022/06/30 09:57:20;;;;;;;5.38;4.40;;;;;;;35.69;36.83;99295.78;5049275;28;20201;-68
2022/06/30 09:59:47;;;;;;;4.22;3.75;;;;;;;35.76;40.11;99293.91;5049863;28;20204;-68
2022/06/30 10:02:14;;;;;;;3.08;2.97;;;;;;;35.64;37.43;99306.25;5049180;28;20218;-67
2022/06/30 10:05:04;;;;;;;3.15;2.95;;;;;;;35.40;37.85;99293.56;5049071;28;20197;-69
2022/06/30 10:07:34;;;;;;;3.90;3.70;;;;;;;35.33;36.81;99274.06;5046635;28;20250;-68
2022/06/30 10:10:01;;;;;;;2.92;2.83;;;;;;;35.72;36.82;99298.00;5050980;28;20228;-66
2022/06/30 10:12:28;;;;;;;3.08;2.92;;;;;;;35.42;35.86;99296.81;5051575;28;20205;-66
2022/06/30 10:14:56;;;;;;;3.42;3.33;;;;;;;35.69;35.10;99279.75;5048530;28;20200;-68
2022/06/30 10:17:24;;;;;;;3.67;3.45;;;;;;;36.07;37.11;99291.34;5051125;28;20196;-68
2022/06/30 10:19:52;;;;;;;3.40;3.00;;;;;;;36.15;35.59;99277.75;5043944;28;20197;-68
2022/06/30 10:22:22;;;;;;;2.78;2.67;;;;;;;36.21;34.86;99287.56;5050748;28;20791;-67
2022/06/30 10:24:51;;;;;;;3.35;3.22;;;;;;;36.35;34.17;99284.84;5049764;28;20197;-68
2022/06/30 10:27:19;;;;;;;3.05;2.95;;;;;;;36.67;35.38;99284.66;5050441;28;20208;-67
2022/06/30 10:29:52;;;;;;;3.58;3.38;;;;;;;36.92;35.01;99284.66;5050595;28;20596;-67
2022/06/30 10:32:54;;;;;;;3.28;3.08;;;;;;;36.80;35.03;99286.41;5050813;28;20204;-65
2022/06/30 10:35:28;;;;;;;2.92;2.83;;;;;;;36.47;34.28;99272.41;5045977;28;20219;-67
2022/06/30 10:38:01;;;;;;;3.17;3.08;;;;;;;36.51;36.71;99276.31;5039588;28;20223;-66
2022/06/30 10:40:45;;;;;;;3.30;3.10;;;;;;;36.36;34.96;99267.75;5042194;28;20603;-66
2022/06/30 10:43:14;;;;;;;3.63;3.33;;;;;;;36.51;34.80;99270.97;5052364;28;20208;-67
2022/06/30 10:46:01;;;;;;;3.65;3.53;;;;;;;36.66;36.98;99264.31;5053930;28;20193;-66
2022/06/30 10:48:49;;;;;;;3.50;3.20;;;;;;;36.52;35.24;99261.91;5049538;28;20204;-66
2022/06/30 10:51:17;;;;;;;2.95;2.85;;;;;;;36.30;35.15;99258.75;5051353;28;20225;-66
2022/06/30 10:53:57;;;;;;;2.70;2.60;;;;;;;36.48;36.27;99250.03;5053180;28;20289;-67
2022/06/30 10:56:45;;;;;;;3.13;2.97;;;;;;;36.77;35.24;99249.44;5041955;28;20256;-69
2022/06/30 10:59:14;;;;;;;3.35;2.97;;;;;;;36.87;35.37;99251.59;5050030;28;20270;-67
2022/06/30 11:02:31;;;;;;;4.70;2.83;;;;;;;36.99;34.93;99250.66;5042814;28;20188;-69
2022/06/30 11:05:23;;;;;;;3.20;3.10;;;;;;;36.90;35.84;99249.28;5015488;28;20234;-68
2022/06/30 11:07:50;;;;;;;3.40;3.20;;;;;;;36.40;34.62;99253.78;5051558;28;20205;-66
2022/06/30 11:10:21;;;;;;;3.78;3.58;;;;;;;36.35;34.85;99244.78;5050472;28;20252;-67
2022/06/30 11:13:06;;;;;;;3.35;3.13;;;;;;;36.56;35.80;99241.78;5051864;28;20196;-67
2022/06/30 11:15:52;;;;;;;3.03;2.92;;;;;;;36.91;35.18;99239.41;5054994;28;20231;-65
2022/06/30 11:18:21;;;;;;;3.58;3.33;;;;;;;36.27;34.65;99236.00;5054425;28;20649;-66
2022/06/30 11:20:49;;;;;;;2.95;2.85;;;;;;;36.38;38.23;99233.66;5050075;28;20219;-67
2022/06/30 11:23:18;;;;;;;3.42;3.33;;;;;;;36.09;37.27;99233.22;5053219;28;20204;-66
2022/06/30 11:28:34;;;;;;;3.08;2.90;;;;;;;36.08;35.91;99220.91;5051163;28;20223;-67
2022/06/30 11:31:01;;;;;;;2.92;2.83;;;;;;;36.26;35.55;99230.84;5054011;28;20599;-66
2022/06/30 11:33:27;;;;;;;3.47;3.28;;;;;;;36.03;35.39;99230.56;5052845;28;20212;-66
2022/06/30 11:36:04;;;;;;;4.68;3.17;;;;;;;35.77;34.90;99235.00;5052905;28;20204;-67
2022/06/30 11:38:32;;;;;;;3.72;3.08;;;;;;;35.91;36.73;99227.75;5052769;28;20204;-68
2022/06/30 11:43:41;;;;;;;2.60;2.50;;;;;;;36.56;34.92;99221.22;5046667;28;20193;-69
2022/06/30 11:46:08;;;;;;;2.90;2.80;;;;;;;36.92;34.26;99225.84;5045486;28;20672;-69
2022/06/30 11:48:37;;;;;;;2.70;2.60;;;;;;;36.95;34.06;99225.41;5037749;28;20259;-70
2022/06/30 11:51:10;;;;;;;3.45;3.28;;;;;;;36.51;36.42;99222.88;5053538;28;20708;-69
2022/06/30 11:53:40;;;;;;;3.25;3.05;;;;;;;36.35;36.03;99223.41;5042028;28;20205;-65
2022/06/30 11:56:11;;;;;;;3.25;3.05;;;;;;;35.81;36.04;99211.38;5045253;28;20343;-66
2022/06/30 11:58:39;;;;;;;3.28;3.10;;;;;;;36.11;35.59;99217.81;5048311;28;20680;-64
2022/06/30 12:01:18;;;;;;;3.45;3.25;;;;;;;35.84;36.16;99210.94;5047952;28;20220;-64